• Join FlightAware (Why Join?)
  • Login
  • US Flag 
07:27AM EST


 

Airport Tracker/Info


-or-


 

Live Flight TrackerFlight Track Log ✈ EJA831 ✈ 29-Apr-2014 ✈ KSMO - KUDD

Flight Track Log - Related Links

Times and Time Zones

All times are in EDT time to prevent confusion due to time zone crossing. See the EJA831 flight status page for this flight to view local times or setup timezone preferences in your user account.

Time Position Orientation Groundspeed Altitude Reporting Facility
EDT Latitude Longitude Course Direction KTS MPH feet Rate Location/Type
02:39PM 34.0000 -118.4667 270° West 132 152 1,000  Level Southern California TRACON
02:40PM 34.0000 -118.5167 270° West 191 220 3,100 2,820 Climbing Southern California TRACON
02:40PM 33.9839 -118.5681 249° West 223 257 5,900 2,460 Climbing Los Angeles Center
02:41PM 33.9533 -118.6569 248° West 285 328 7,500 2,340 Climbing Los Angeles Center
02:42PM 33.8825 -118.6914 202° Southwest 317 365 10,700 2,640 Climbing Los Angeles Center
02:43PM 33.7983 -118.6781 173° South 322 371 13,000 1,080 Climbing Los Angeles Center
02:44PM 33.7439 -118.5969 129° Southeast 328 377 13,000 1,020 Level Los Angeles Center
02:45PM 33.7517 -118.4631 86° East 334 384 15,200 1,740 Climbing Los Angeles Center
02:47PM 33.7597 -118.3636 84° East 337 388 16,700 840 Climbing Los Angeles Center
02:48PM 33.7697 -118.2361 85° East 367 422 17,000 120 Climbing Los Angeles Center
02:49PM 33.7808 -118.0917 85° East 360 414 17,000  Level Los Angeles Center
02:50PM 33.7772 -117.9708 92° East 361 415 17,000  Level Los Angeles Center
02:51PM 33.7681 -117.8492 95° East 362 417 17,000  Level Los Angeles Center
02:52PM 33.7589 -117.7272 95° East 364 419 17,000  Level Los Angeles Center
02:53PM 33.7494 -117.6067 95° East 365 420 17,000  Level Los Angeles Center
02:54PM 33.7400 -117.4825 95° East 369 425 17,000  Level Los Angeles Center
02:55PM 33.7281 -117.3361 96° East 370 426 17,000  Level Los Angeles Center
02:56PM 33.7186 -117.2150 95° East 367 422 17,000  Level Los Angeles Center
02:57PM 33.7081 -117.0950 96° East 363 418 17,000  Level Los Angeles Center
02:58PM 33.6978 -116.9744 96° East 363 418 17,000  Level Los Angeles Center
02:59PM 33.6861 -116.8542 97° East 363 418 17,000 -360 Level Los Angeles Center
03:00PM 33.6783 -116.7339 94° East 363 418 16,300 -1,500 Descending Los Angeles Center
03:01PM 33.6672 -116.5903 95° East 362 417 13,900 -2,160 Descending Los Angeles Center
03:02PM 33.6581 -116.4897 96° East 339 390 11,900 -2,040 Descending Los Angeles Center
03:03PM 33.6792 -116.4222 69° East 286 329 9,800 -1,860 Descending Los Angeles Center
03:04PM 33.7317 -116.4014 18° North 232 267 8,100 -1,020 Descending Los Angeles Center
03:05PM 33.7806 -116.3947 North 199 229 7,700 -420 Descending Los Angeles Center
03:06PM 33.8247 -116.3869 North 193 222 7,300 -420 Descending Los Angeles Center
03:08PM 33.7579 -116.2887 129° Southeast  Level Estimated
03:15PM 33.7484 -116.2748 312° West  Level Estimated